Wetterdaten: Woche 22.06.15 - 28.06.15 (KW26)
Datum Zeit Temp. A. Feuchte A. Luftdruck Regen Wind Richtung Sonnenschein ET UV Solar Taupunkt Windchill Windben
22.06.2015 00:00 11,8 C 91 % 1014,5 hPa 0,0 l/m 0,2 km/h (0 Bft) N 0,00 h 0,000 mm 0,0 UV-I 0 W/m 10,5 C 11,8 C 0,9 km/h (0 Bft)
22.06.2015 01:00 12,1 C 90 % 1014,1 hPa 0,0 l/m 0,3 km/h (0 Bft) N 0,00 h 0,000 mm 0,0 UV-I 0 W/m 10,5 C 12,1 C 1,4 km/h (1 Bft)
22.06.2015 02:00 11,8 C 92 % 1013,9 hPa 0,0 l/m 0,1 km/h (0 Bft) N 0,00 h 0,000 mm 0,0 UV-I 0 W/m 10,5 C 11,8 C 0,6 km/h (0 Bft)
22.06.2015 03:00 11,7 C 93 % 1013,4 hPa 0,0 l/m 0,6 km/h (0 Bft) N 0,00 h 0,000 mm 0,0 UV-I 0 W/m 10,6 C 11,7 C 2,3 km/h (1 Bft)
22.06.2015 04:00 12,0 C 94 % 1013,2 hPa 0,0 l/m 0,4 km/h (0 Bft) N 0,00 h 0,000 mm 0,0 UV-I 0 W/m 11,0 C 12,0 C 1,5 km/h (1 Bft)
22.06.2015 05:00 12,0 C 94 % 1013,4 hPa 0,0 l/m 0,5 km/h (0 Bft) N 0,00 h 0,000 mm 0,0 UV-I 15 W/m 11,1 C 12,0 C 2,1 km/h (1 Bft)
22.06.2015 06:00 12,3 C 94 % 1013,1 hPa 0,0 l/m 2,0 km/h (1 Bft) S-SW 0,55 h 0,000 mm 0,5 UV-I 64 W/m 11,4 C 12,3 C 6,4 km/h (2 Bft)
22.06.2015 07:00 13,0 C 92 % 1013,0 hPa 0,0 l/m 2,3 km/h (1 Bft) SW 1,00 h 0,025 mm 0,7 UV-I 136 W/m 11,8 C 13,0 C 6,9 km/h (2 Bft)
22.06.2015 08:00 14,2 C 86 % 1012,7 hPa 0,0 l/m 4,9 km/h (1 Bft) S 1,00 h 0,077 mm 1,4 UV-I 311 W/m 11,9 C 14,1 C 9,9 km/h (2 Bft)
22.06.2015 09:00 15,2 C 81 % 1012,5 hPa 0,0 l/m 5,9 km/h (2 Bft) S 1,00 h 0,178 mm 1,8 UV-I 331 W/m 11,9 C 14,7 C 11,2 km/h (2 Bft)
22.06.2015 10:00 15,7 C 79 % 1012,0 hPa 0,0 l/m 5,4 km/h (2 Bft) S 1,00 h 0,178 mm 1,7 UV-I 233 W/m 12,0 C 15,3 C 11,2 km/h (2 Bft)
22.06.2015 11:00 16,0 C 78 % 1011,3 hPa 0,0 l/m 5,3 km/h (1 Bft) SW 1,00 h 0,127 mm 1,9 UV-I 236 W/m 12,1 C 15,6 C 11,6 km/h (2 Bft)
22.06.2015 12:00 16,4 C 77 % 1010,0 hPa 0,0 l/m 6,9 km/h (2 Bft) S 1,00 h 0,152 mm 2,6 UV-I 305 W/m 12,3 C 15,7 C 13,3 km/h (3 Bft)
22.06.2015 13:00 13,3 C 89 % 1010,7 hPa 3,2 l/m 11,1 km/h (2 Bft) W-SW 0,97 h 0,178 mm 0,9 UV-I 94 W/m 11,4 C 10,6 C 19,6 km/h (3 Bft)
22.06.2015 14:00 12,2 C 92 % 1010,7 hPa 1,0 l/m 2,7 km/h (1 Bft) W-SW 0,98 h 0,051 mm 1,2 UV-I 124 W/m 11,0 C 12,1 C 7,4 km/h (2 Bft)
22.06.2015 15:00 12,2 C 91 % 1010,7 hPa 0,6 l/m 12,3 km/h (2 Bft) W-SW 1,00 h 0,051 mm 1,5 UV-I 187 W/m 10,9 C 9,1 C 21,4 km/h (4 Bft)
22.06.2015 16:00 12,4 C 89 % 1010,6 hPa 0,0 l/m 6,4 km/h (2 Bft) SW 0,93 h 0,102 mm 1,1 UV-I 148 W/m 10,6 C 11,5 C 13,1 km/h (3 Bft)
22.06.2015 17:00 12,0 C 88 % 1010,3 hPa 0,2 l/m 7,5 km/h (2 Bft) SW 0,92 h 0,076 mm 0,8 UV-I 114 W/m 10,2 C 10,6 C 15,1 km/h (3 Bft)
22.06.2015 18:00 11,5 C 88 % 1010,2 hPa 0,0 l/m 10,3 km/h (2 Bft) W-SW 0,80 h 0,076 mm 0,6 UV-I 82 W/m 9,6 C 9,0 C 18,4 km/h (3 Bft)
22.06.2015 19:00 11,6 C 86 % 1009,7 hPa 0,0 l/m 5,7 km/h (2 Bft) W-SW 0,82 h 0,051 mm 0,5 UV-I 75 W/m 9,4 C 10,7 C 12,0 km/h (2 Bft)
22.06.2015 20:00 11,5 C 88 % 1008,7 hPa 0,0 l/m 0,5 km/h (0 Bft) N 0,60 h 0,051 mm 0,0 UV-I 64 W/m 9,6 C 11,5 C 2,1 km/h (1 Bft)
22.06.2015 21:00 11,0 C 90 % 1008,1 hPa 0,0 l/m 0,0 km/h (0 Bft) N 0,00 h 0,025 mm 0,0 UV-I 9 W/m 9,5 C 11,0 C 0,2 km/h (0 Bft)
22.06.2015 22:00 10,6 C 92 % 1007,2 hPa 0,2 l/m 0,2 km/h (0 Bft) N 0,00 h 0,000 mm 0,0 UV-I 0 W/m 9,4 C 10,6 C 1,1 km/h (1 Bft)
22.06.2015 23:00 10,3 C 93 % 1006,4 hPa 0,4 l/m 0,9 km/h (0 Bft) N 0,00 h 0,000 mm 0,0 UV-I 0 W/m 9,3 C 10,3 C 3,1 km/h (1 Bft)
23.06.2015 00:00 10,3 C 95 % 1005,6 hPa 0,4 l/m 1,6 km/h (1 Bft) S-SO 0,00 h 0,000 mm 0,0 UV-I 0 W/m 9,5 C 10,3 C 4,7 km/h (1 Bft)
23.06.2015 01:00 10,3 C 96 % 1004,7 hPa 2,4 l/m 3,2 km/h (1 Bft) S-SO 0,00 h 0,000 mm 0,0 UV-I 0 W/m 9,6 C 10,1 C 7,6 km/h (2 Bft)
23.06.2015 02:00 10,2 C 96 % 1004,1 hPa 2,2 l/m 3,1 km/h (1 Bft) S-SO 0,00 h 0,000 mm 0,0 UV-I 0 W/m 9,6 C 10,2 C 8,1 km/h (2 Bft)
23.06.2015 03:00 10,1 C 95 % 1004,7 hPa 0,2 l/m 5,6 km/h (2 Bft) W-SW 0,00 h 0,000 mm 0,0 UV-I 0 W/m 9,4 C 9,5 C 12,5 km/h (2 Bft)
23.06.2015 04:00 9,8 C 95 % 1005,2 hPa 0,0 l/m 4,5 km/h (1 Bft) SW 0,00 h 0,000 mm 0,0 UV-I 0 W/m 9,1 C 9,5 C 11,9 km/h (2 Bft)
23.06.2015 05:00 9,7 C 95 % 1005,6 hPa 0,6 l/m 8,6 km/h (2 Bft) W-SW 0,00 h 0,000 mm 0,0 UV-I 10 W/m 9,0 C 7,9 C 16,9 km/h (3 Bft)
23.06.2015 06:00 9,1 C 94 % 1006,9 hPa 0,0 l/m 6,5 km/h (2 Bft) W 0,45 h 0,000 mm 0,0 UV-I 48 W/m 8,1 C 8,0 C 13,7 km/h (3 Bft)
23.06.2015 07:00 8,9 C 94 % 1007,8 hPa 0,8 l/m 5,7 km/h (2 Bft) W 0,32 h 0,025 mm 0,0 UV-I 45 W/m 8,0 C 8,2 C 12,3 km/h (2 Bft)
23.06.2015 08:00 8,7 C 94 % 1008,8 hPa 0,2 l/m 6,2 km/h (2 Bft) W 0,90 h 0,025 mm 0,6 UV-I 81 W/m 7,8 C 7,9 C 13,4 km/h (3 Bft)
23.06.2015 09:00 9,2 C 92 % 1009,4 hPa 0,0 l/m 7,6 km/h (2 Bft) W 0,90 h 0,025 mm 1,6 UV-I 243 W/m 8,1 C 7,7 C 14,7 km/h (3 Bft)
23.06.2015 10:00 9,9 C 89 % 1010,0 hPa 0,0 l/m 12,4 km/h (2 Bft) W 1,00 h 0,102 mm 1,8 UV-I 248 W/m 8,1 C 6,3 C 20,4 km/h (4 Bft)
23.06.2015 11:00 11,4 C 82 % 1010,5 hPa 0,0 l/m 8,8 km/h (2 Bft) W 1,00 h 0,127 mm 3,7 UV-I 516 W/m 8,5 C 9,5 C 16,5 km/h (3 Bft)
23.06.2015 12:00 12,5 C 75 % 1010,8 hPa 0,0 l/m 13,0 km/h (3 Bft) W-SW 1,00 h 0,279 mm 4,3 UV-I 663 W/m 8,2 C 9,1 C 21,8 km/h (4 Bft)
23.06.2015 13:00 13,6 C 70 % 1011,0 hPa 0,0 l/m 12,2 km/h (2 Bft) W 1,00 h 0,330 mm 5,8 UV-I 906 W/m 8,3 C 10,6 C 21,0 km/h (4 Bft)
23.06.2015 14:00 14,9 C 62 % 1011,1 hPa 0,0 l/m 12,5 km/h (2 Bft) W-SW 1,00 h 0,483 mm 4,8 UV-I 848 W/m 7,7 C 12,1 C 21,3 km/h (4 Bft)
23.06.2015 15:00 14,6 C 64 % 1011,6 hPa 0,0 l/m 11,7 km/h (2 Bft) W-SW 1,00 h 0,432 mm 4,1 UV-I 610 W/m 7,9 C 12,0 C 20,6 km/h (4 Bft)
23.06.2015 16:00 13,2 C 69 % 1012,2 hPa 0,0 l/m 10,8 km/h (2 Bft) N 0,93 h 0,381 mm 1,5 UV-I 229 W/m 7,5 C 10,8 C 18,1 km/h (3 Bft)
23.06.2015 17:00 9,3 C 88 % 1013,6 hPa 2,6 l/m 5,6 km/h (2 Bft) W-NW 0,72 h 0,152 mm 0,5 UV-I 63 W/m 7,4 C 8,1 C 10,4 km/h (2 Bft)
23.06.2015 18:00 9,9 C 90 % 1013,5 hPa 0,0 l/m 1,4 km/h (1 Bft) W-SW 1,00 h 0,025 mm 0,8 UV-I 128 W/m 8,4 C 9,9 C 4,8 km/h (1 Bft)
23.06.2015 19:00 10,5 C 89 % 1013,5 hPa 0,0 l/m 2,3 km/h (1 Bft) W-SW 1,00 h 0,051 mm 0,5 UV-I 86 W/m 8,8 C 10,5 C 5,7 km/h (2 Bft)
23.06.2015 20:00 10,2 C 89 % 1013,9 hPa 0,0 l/m 3,2 km/h (1 Bft) W-SW 0,07 h 0,051 mm 0,0 UV-I 29 W/m 8,6 C 10,2 C 7,9 km/h (2 Bft)
23.06.2015 21:00 9,2 C 92 % 1014,8 hPa 0,0 l/m 0,0 km/h (0 Bft) N 0,00 h 0,025 mm 0,0 UV-I 7 W/m 7,9 C 9,2 C 0,1 km/h (0 Bft)
23.06.2015 22:00 8,5 C 93 % 1015,6 hPa 0,0 l/m 0,0 km/h (0 Bft) N 0,00 h 0,002 mm 0,0 UV-I 0 W/m 7,4 C 8,5 C 0,0 km/h (0 Bft)
24.06.2015 03:00 9,4 C 95 % 1017,8 hPa 0,0 l/m 0,5 km/h (0 Bft) N 0,00 h 0,000 mm 0,0 UV-I 0 W/m 8,6 C 9,4 C 2,3 km/h (1 Bft)
24.06.2015 04:00 9,4 C 95 % 1017,9 hPa 0,0 l/m 0,3 km/h (0 Bft) N 0,00 h 0,000 mm 0,0 UV-I 0 W/m 8,6 C 9,4 C 1,2 km/h (1 Bft)
24.06.2015 05:00 9,6 C 95 % 1018,5 hPa 0,0 l/m 0,6 km/h (0 Bft) N 0,00 h 0,000 mm 0,0 UV-I 10 W/m 8,8 C 9,6 C 2,1 km/h (1 Bft)
24.06.2015 06:00 10,0 C 95 % 1019,1 hPa 0,0 l/m 2,3 km/h (1 Bft) W-SW 0,20 h 0,000 mm 0,0 UV-I 37 W/m 9,1 C 9,9 C 6,1 km/h (2 Bft)
24.06.2015 07:00 10,1 C 95 % 1019,7 hPa 0,2 l/m 4,5 km/h (1 Bft) W-SW 0,37 h 0,025 mm 0,5 UV-I 47 W/m 9,3 C 9,9 C 9,8 km/h (2 Bft)
24.06.2015 08:00 10,7 C 94 % 1020,2 hPa 0,0 l/m 3,7 km/h (1 Bft) W 1,00 h 0,025 mm 0,9 UV-I 148 W/m 9,8 C 10,6 C 8,5 km/h (2 Bft)
24.06.2015 09:00 11,5 C 90 % 1020,9 hPa 0,0 l/m 3,7 km/h (1 Bft) W 1,00 h 0,076 mm 1,2 UV-I 201 W/m 10,0 C 11,4 C 8,0 km/h (2 Bft)
24.06.2015 10:00 11,4 C 86 % 1021,5 hPa 0,0 l/m 3,4 km/h (1 Bft) W 0,92 h 0,102 mm 0,9 UV-I 105 W/m 9,2 C 11,3 C 7,5 km/h (2 Bft)
24.06.2015 11:00 12,1 C 82 % 1021,9 hPa 0,0 l/m 3,7 km/h (1 Bft) W-SW 1,00 h 0,051 mm 1,9 UV-I 245 W/m 9,2 C 12,0 C 7,6 km/h (2 Bft)
24.06.2015 12:00 13,1 C 80 % 1022,2 hPa 0,0 l/m 3,9 km/h (1 Bft) W 1,00 h 0,127 mm 2,6 UV-I 315 W/m 9,8 C 13,0 C 8,2 km/h (2 Bft)
24.06.2015 13:00 14,1 C 76 % 1022,2 hPa 0,0 l/m 4,2 km/h (1 Bft) W-SW 1,00 h 0,178 mm 2,8 UV-I 335 W/m 9,8 C 13,9 C 8,7 km/h (2 Bft)
24.06.2015 14:00 14,3 C 75 % 1022,2 hPa 0,0 l/m 4,2 km/h (1 Bft) W-SW 1,00 h 0,178 mm 2,0 UV-I 241 W/m 9,9 C 14,0 C 9,2 km/h (2 Bft)
24.06.2015 15:00 15,1 C 72 % 1022,2 hPa 0,0 l/m 6,0 km/h (2 Bft) W-SW 1,00 h 0,152 mm 2,9 UV-I 377 W/m 10,1 C 14,6 C 12,0 km/h (2 Bft)
24.06.2015 16:00 15,6 C 69 % 1022,3 hPa 0,0 l/m 4,3 km/h (1 Bft) W-SW 1,00 h 0,229 mm 2,2 UV-I 343 W/m 9,9 C 15,4 C 9,6 km/h (2 Bft)
24.06.2015 17:00 16,4 C 64 % 1022,2 hPa 0,0 l/m 6,9 km/h (2 Bft) W-SW 1,00 h 0,203 mm 2,0 UV-I 403 W/m 9,4 C 15,7 C 13,9 km/h (3 Bft)
24.06.2015 18:00 15,7 C 64 % 1022,3 hPa 0,0 l/m 3,6 km/h (1 Bft) W-SW 1,00 h 0,254 mm 1,0 UV-I 98 W/m 8,8 C 15,7 C 7,9 km/h (2 Bft)
24.06.2015 19:00 15,3 C 64 % 1022,4 hPa 0,0 l/m 3,1 km/h (1 Bft) W-SW 0,45 h 0,076 mm 0,6 UV-I 47 W/m 8,6 C 15,3 C 7,0 km/h (2 Bft)
24.06.2015 20:00 14,6 C 68 % 1022,7 hPa 0,0 l/m 1,1 km/h (1 Bft) N 0,00 h 0,051 mm 0,0 UV-I 17 W/m 8,8 C 14,6 C 2,8 km/h (1 Bft)
24.06.2015 21:00 12,5 C 79 % 1023,0 hPa 0,0 l/m 0,0 km/h (0 Bft) N 0,00 h 0,025 mm 0,0 UV-I 7 W/m 8,9 C 12,5 C 0,0 km/h (0 Bft)
24.06.2015 22:00 10,3 C 89 % 1023,2 hPa 0,0 l/m 0,0 km/h (0 Bft) N 0,00 h 0,000 mm 0,0 UV-I 0 W/m 8,5 C 10,3 C 0,0 km/h (0 Bft)
24.06.2015 23:00 8,8 C 93 % 1023,4 hPa 0,0 l/m 0,0 km/h (0 Bft) N 0,00 h 0,000 mm 0,0 UV-I 0 W/m 7,6 C 8,8 C 0,0 km/h (0 Bft)
25.06.2015 00:00 7,8 C 94 % 1023,6 hPa 0,0 l/m 0,0 km/h (0 Bft) N 0,00 h 0,000 mm 0,0 UV-I 0 W/m 6,9 C 7,8 C 0,0 km/h (0 Bft)
25.06.2015 01:00 7,1 C 95 % 1023,6 hPa 0,0 l/m 0,0 km/h (0 Bft) N 0,00 h 0,000 mm 0,0 UV-I 0 W/m 6,3 C 7,1 C 0,0 km/h (0 Bft)
25.06.2015 02:00 6,2 C 95 % 1023,7 hPa 0,0 l/m 0,0 km/h (0 Bft) N 0,00 h 0,000 mm 0,0 UV-I 0 W/m 5,5 C 6,2 C 0,0 km/h (0 Bft)
25.06.2015 03:00 5,8 C 96 % 1023,7 hPa 0,0 l/m 0,0 km/h (0 Bft) N 0,00 h 0,000 mm 0,0 UV-I 0 W/m 5,2 C 5,8 C 0,0 km/h (0 Bft)
25.06.2015 04:00 5,2 C 96 % 1023,7 hPa 0,0 l/m 0,0 km/h (0 Bft) N 0,00 h 0,000 mm 0,0 UV-I 0 W/m 4,6 C 5,2 C 0,0 km/h (0 Bft)
25.06.2015 05:00 4,7 C 96 % 1023,8 hPa 0,0 l/m 0,0 km/h (0 Bft) N 0,00 h 0,000 mm 0,0 UV-I 11 W/m 4,1 C 4,7 C 0,0 km/h (0 Bft)
25.06.2015 06:00 5,6 C 97 % 1023,9 hPa 0,0 l/m 0,0 km/h (0 Bft) N 0,00 h 0,000 mm 0,0 UV-I 24 W/m 5,1 C 5,6 C 0,0 km/h (0 Bft)
25.06.2015 07:00 8,8 C 93 % 1023,9 hPa 0,0 l/m 0,0 km/h (0 Bft) N 0,53 h 0,000 mm 0,9 UV-I 181 W/m 7,8 C 8,8 C 0,0 km/h (0 Bft)
25.06.2015 08:00 12,7 C 83 % 1023,8 hPa 0,0 l/m 0,1 km/h (0 Bft) N 1,00 h 0,076 mm 1,6 UV-I 429 W/m 9,9 C 12,7 C 0,3 km/h (0 Bft)
25.06.2015 09:00 15,8 C 74 % 1023,7 hPa 0,0 l/m 0,7 km/h (0 Bft) N 1,00 h 0,203 mm 2,9 UV-I 604 W/m 11,1 C 15,8 C 2,0 km/h (1 Bft)
25.06.2015 10:00 17,9 C 64 % 1023,5 hPa 0,0 l/m 0,7 km/h (0 Bft) N 1,00 h 0,330 mm 3,9 UV-I 732 W/m 10,9 C 17,9 C 2,0 km/h (1 Bft)
25.06.2015 11:00 19,0 C 58 % 1023,4 hPa 0,0 l/m 2,3 km/h (1 Bft) S 1,00 h 0,406 mm 4,9 UV-I 768 W/m 10,6 C 19,0 C 5,4 km/h (2 Bft)
25.06.2015 12:00 17,6 C 60 % 1023,5 hPa 0,0 l/m 0,7 km/h (0 Bft) N 0,97 h 0,432 mm 1,2 UV-I 133 W/m 9,6 C 17,6 C 2,3 km/h (1 Bft)
25.06.2015 13:00 17,6 C 62 % 1023,5 hPa 0,0 l/m 0,9 km/h (0 Bft) N 1,00 h 0,076 mm 2,1 UV-I 261 W/m 10,3 C 17,6 C 3,0 km/h (1 Bft)
25.06.2015 14:00 19,2 C 58 % 1023,2 hPa 0,0 l/m 0,7 km/h (0 Bft) N 1,00 h 0,152 mm 4,0 UV-I 563 W/m 10,6 C 19,2 C 2,2 km/h (1 Bft)
25.06.2015 15:00 20,9 C 52 % 1022,7 hPa 0,0 l/m 3,9 km/h (1 Bft) S 1,00 h 0,330 mm 4,6 UV-I 800 W/m 10,6 C 20,9 C 8,3 km/h (2 Bft)
25.06.2015 16:00 20,8 C 48 % 1022,4 hPa 0,0 l/m 3,7 km/h (1 Bft) W-SW 1,00 h 0,483 mm 2,7 UV-I 527 W/m 9,5 C 20,7 C 8,1 km/h (2 Bft)
25.06.2015 17:00 21,0 C 48 % 1022,1 hPa 0,0 l/m 4,1 km/h (1 Bft) W-SW 1,00 h 0,330 mm 1,9 UV-I 469 W/m 9,6 C 20,9 C 8,6 km/h (2 Bft)
25.06.2015 18:00 20,1 C 50 % 1022,1 hPa 0,0 l/m 1,8 km/h (1 Bft) N 1,00 h 0,279 mm 0,8 UV-I 137 W/m 9,3 C 20,1 C 4,3 km/h (1 Bft)
25.06.2015 19:00 19,4 C 50 % 1022,1 hPa 0,0 l/m 0,5 km/h (0 Bft) N 0,88 h 0,102 mm 0,6 UV-I 61 W/m 8,8 C 19,4 C 1,4 km/h (1 Bft)
25.06.2015 20:00 18,8 C 50 % 1022,2 hPa 0,0 l/m 0,9 km/h (0 Bft) N 0,00 h 0,051 mm 0,0 UV-I 28 W/m 8,1 C 18,8 C 1,9 km/h (1 Bft)
25.06.2015 21:00 15,7 C 64 % 1022,2 hPa 0,0 l/m 0,0 km/h (0 Bft) N 0,00 h 0,025 mm 0,0 UV-I 5 W/m 8,9 C 15,7 C 0,0 km/h (0 Bft)
25.06.2015 23:00 11,1 C 87 % 1022,6 hPa 0,0 l/m 0,0 km/h (0 Bft) N 0,00 h 0,000 mm 0,0 UV-I 0 W/m 9,0 C 11,1 C 0,0 km/h (0 Bft)
26.06.2015 00:00 10,3 C 89 % 1022,7 hPa 0,0 l/m 0,0 km/h (0 Bft) N 0,00 h 0,000 mm 0,0 UV-I 0 W/m 8,6 C 10,3 C 0,0 km/h (0 Bft)
26.06.2015 01:00 9,5 C 91 % 1022,5 hPa 0,0 l/m 0,0 km/h (0 Bft) N 0,00 h 0,000 mm 0,0 UV-I 0 W/m 8,1 C 9,5 C 0,0 km/h (0 Bft)
26.06.2015 02:00 8,9 C 92 % 1022,3 hPa 0,0 l/m 0,0 km/h (0 Bft) N 0,00 h 0,000 mm 0,0 UV-I 0 W/m 7,7 C 8,9 C 0,0 km/h (0 Bft)
26.06.2015 03:00 8,6 C 93 % 1022,2 hPa 0,0 l/m 0,0 km/h (0 Bft) N 0,00 h 0,000 mm 0,0 UV-I 0 W/m 7,5 C 8,6 C 0,0 km/h (0 Bft)
26.06.2015 04:00 8,1 C 94 % 1022,0 hPa 0,0 l/m 0,0 km/h (0 Bft) N 0,00 h 0,000 mm 0,0 UV-I 0 W/m 7,2 C 8,1 C 0,0 km/h (0 Bft)
26.06.2015 05:00 7,8 C 95 % 1021,7 hPa 0,0 l/m 0,0 km/h (0 Bft) N 0,00 h 0,000 mm 0,0 UV-I 16 W/m 7,0 C 7,8 C 0,0 km/h (0 Bft)
26.06.2015 06:00 8,8 C 94 % 1021,7 hPa 0,0 l/m 0,0 km/h (0 Bft) N 0,15 h 0,000 mm 0,5 UV-I 42 W/m 7,8 C 8,8 C 0,0 km/h (0 Bft)
26.06.2015 07:00 11,6 C 86 % 1021,7 hPa 0,0 l/m 0,0 km/h (0 Bft) N 1,00 h 0,025 mm 0,8 UV-I 180 W/m 9,3 C 11,6 C 0,1 km/h (0 Bft)
26.06.2015 08:00 14,5 C 80 % 1021,7 hPa 0,0 l/m 0,2 km/h (0 Bft) N 1,00 h 0,076 mm 1,1 UV-I 194 W/m 11,1 C 14,5 C 0,6 km/h (0 Bft)
26.06.2015 09:00 16,4 C 75 % 1021,6 hPa 0,0 l/m 1,7 km/h (1 Bft) S-SO 1,00 h 0,102 mm 2,1 UV-I 310 W/m 11,9 C 16,4 C 3,7 km/h (1 Bft)
26.06.2015 10:00 19,2 C 66 % 1021,2 hPa 0,0 l/m 2,6 km/h (1 Bft) S 1,00 h 0,178 mm 3,6 UV-I 585 W/m 12,6 C 19,2 C 5,8 km/h (2 Bft)
26.06.2015 11:00 21,1 C 55 % 1020,7 hPa 0,0 l/m 5,2 km/h (1 Bft) W-SW 1,00 h 0,356 mm 4,6 UV-I 632 W/m 11,8 C 20,9 C 9,7 km/h (2 Bft)
26.06.2015 12:00 22,1 C 51 % 1020,4 hPa 0,0 l/m 5,5 km/h (2 Bft) W-SW 1,00 h 0,406 mm 5,2 UV-I 626 W/m 11,4 C 21,8 C 10,4 km/h (2 Bft)
26.06.2015 13:00 22,6 C 50 % 1020,0 hPa 0,0 l/m 5,6 km/h (2 Bft) W-NW 1,00 h 0,432 mm 4,9 UV-I 582 W/m 11,8 C 22,3 C 10,9 km/h (2 Bft)
26.06.2015 14:00 22,7 C 51 % 1019,4 hPa 0,0 l/m 4,2 km/h (1 Bft) W-SW 1,00 h 0,406 mm 4,1 UV-I 507 W/m 11,9 C 22,6 C 9,1 km/h (2 Bft)
26.06.2015 15:00 23,8 C 47 % 1018,9 hPa 0,0 l/m 6,4 km/h (2 Bft) W-SW 1,00 h 0,356 mm 4,5 UV-I 627 W/m 11,9 C 23,5 C 12,3 km/h (2 Bft)
26.06.2015 16:00 23,6 C 47 % 1018,5 hPa 0,0 l/m 6,4 km/h (2 Bft) W 1,00 h 0,457 mm 2,7 UV-I 447 W/m 11,7 C 23,3 C 12,5 km/h (2 Bft)
26.06.2015 17:00 21,9 C 52 % 1018,4 hPa 0,0 l/m 4,0 km/h (1 Bft) W 0,80 h 0,330 mm 1,0 UV-I 111 W/m 11,6 C 21,8 C 8,2 km/h (2 Bft)
26.06.2015 18:00 22,0 C 53 % 1018,1 hPa 0,0 l/m 2,0 km/h (1 Bft) N 1,00 h 0,102 mm 0,6 UV-I 110 W/m 12,0 C 22,0 C 4,8 km/h (1 Bft)
26.06.2015 19:00 21,6 C 56 % 1018,0 hPa 0,0 l/m 0,1 km/h (0 Bft) N 1,00 h 0,076 mm 0,5 UV-I 82 W/m 12,5 C 21,6 C 0,4 km/h (0 Bft)
26.06.2015 20:00 20,5 C 62 % 1018,0 hPa 0,0 l/m 0,1 km/h (0 Bft) N 0,12 h 0,051 mm 0,0 UV-I 27 W/m 12,8 C 20,5 C 0,2 km/h (0 Bft)
26.06.2015 21:00 19,0 C 68 % 1018,1 hPa 0,0 l/m 0,0 km/h (0 Bft) N 0,00 h 0,025 mm 0,0 UV-I 0 W/m 12,9 C 19,0 C 0,0 km/h (0 Bft)
26.06.2015 22:00 17,1 C 78 % 1018,2 hPa 0,0 l/m 0,0 km/h (0 Bft) N 0,00 h 0,000 mm 0,0 UV-I 0 W/m 13,3 C 17,1 C 0,1 km/h (0 Bft)
26.06.2015 23:00 15,8 C 84 % 1017,9 hPa 0,0 l/m 0,0 km/h (0 Bft) N 0,00 h 0,025 mm 0,0 UV-I 0 W/m 13,2 C 15,8 C 0,1 km/h (0 Bft)
27.06.2015 00:00 15,7 C 84 % 1017,7 hPa 0,0 l/m 0,0 km/h (0 Bft) N 0,00 h 0,025 mm 0,0 UV-I 0 W/m 13,0 C 15,7 C 0,0 km/h (0 Bft)
27.06.2015 01:00 15,3 C 87 % 1017,4 hPa 0,0 l/m 0,0 km/h (0 Bft) N 0,00 h 0,025 mm 0,0 UV-I 0 W/m 13,1 C 15,3 C 0,0 km/h (0 Bft)
27.06.2015 02:00 14,9 C 87 % 1016,7 hPa 0,0 l/m 0,0 km/h (0 Bft) N 0,00 h 0,000 mm 0,0 UV-I 0 W/m 12,8 C 14,9 C 0,1 km/h (0 Bft)
27.06.2015 03:00 14,8 C 88 % 1016,4 hPa 0,0 l/m 0,0 km/h (0 Bft) N 0,00 h 0,000 mm 0,0 UV-I 0 W/m 12,8 C 14,8 C 0,0 km/h (0 Bft)
27.06.2015 04:00 14,7 C 88 % 1016,2 hPa 0,0 l/m 0,3 km/h (0 Bft) N 0,00 h 0,000 mm 0,0 UV-I 0 W/m 12,7 C 14,7 C 0,9 km/h (0 Bft)
27.06.2015 05:00 14,7 C 88 % 1016,0 hPa 0,0 l/m 0,2 km/h (0 Bft) N 0,00 h 0,000 mm 0,0 UV-I 6 W/m 12,7 C 14,7 C 0,6 km/h (0 Bft)
27.06.2015 06:00 14,9 C 88 % 1016,1 hPa 0,0 l/m 0,0 km/h (0 Bft) N 0,08 h 0,000 mm 0,0 UV-I 22 W/m 12,8 C 14,9 C 0,3 km/h (0 Bft)
27.06.2015 07:00 16,0 C 86 % 1016,1 hPa 0,0 l/m 0,0 km/h (0 Bft) N 1,00 h 0,025 mm 0,5 UV-I 96 W/m 13,7 C 16,0 C 0,3 km/h (0 Bft)
27.06.2015 08:00 16,1 C 89 % 1016,2 hPa 0,4 l/m 0,0 km/h (0 Bft) N 0,80 h 0,051 mm 0,7 UV-I 85 W/m 14,3 C 16,1 C 0,2 km/h (0 Bft)
27.06.2015 09:00 16,5 C 91 % 1016,5 hPa 0,4 l/m 0,0 km/h (0 Bft) N 0,88 h 0,051 mm 1,1 UV-I 142 W/m 15,1 C 16,5 C 0,1 km/h (0 Bft)
27.06.2015 10:00 17,3 C 90 % 1016,4 hPa 0,2 l/m 0,9 km/h (0 Bft) N 1,00 h 0,076 mm 1,4 UV-I 199 W/m 15,6 C 17,3 C 2,3 km/h (1 Bft)
27.06.2015 11:00 17,5 C 89 % 1016,3 hPa 0,2 l/m 3,7 km/h (1 Bft) W-SW 1,00 h 0,102 mm 1,9 UV-I 251 W/m 15,7 C 17,4 C 7,5 km/h (2 Bft)
27.06.2015 12:00 17,6 C 86 % 1016,2 hPa 0,0 l/m 3,2 km/h (1 Bft) SW 1,00 h 0,127 mm 2,1 UV-I 267 W/m 15,2 C 17,6 C 6,8 km/h (2 Bft)
27.06.2015 13:00 18,7 C 80 % 1015,7 hPa 0,0 l/m 6,6 km/h (2 Bft) SW 1,00 h 0,152 mm 3,9 UV-I 517 W/m 15,2 C 18,0 C 12,1 km/h (2 Bft)
27.06.2015 14:00 18,6 C 77 % 1015,4 hPa 0,2 l/m 8,9 km/h (2 Bft) W 1,00 h 0,305 mm 2,4 UV-I 291 W/m 14,5 C 17,5 C 15,7 km/h (3 Bft)
27.06.2015 15:00 17,1 C 88 % 1015,3 hPa 0,4 l/m 1,0 km/h (0 Bft) N 1,00 h 0,178 mm 1,1 UV-I 151 W/m 15,0 C 17,1 C 2,7 km/h (1 Bft)
27.06.2015 16:00 18,5 C 86 % 1014,9 hPa 0,0 l/m 0,1 km/h (0 Bft) N 1,00 h 0,076 mm 2,1 UV-I 334 W/m 16,1 C 18,5 C 0,5 km/h (0 Bft)
27.06.2015 17:00 18,9 C 78 % 1015,0 hPa 0,0 l/m 4,7 km/h (1 Bft) W 0,93 h 0,178 mm 1,1 UV-I 134 W/m 14,9 C 18,6 C 9,4 km/h (2 Bft)
27.06.2015 18:00 17,5 C 83 % 1015,3 hPa 0,0 l/m 0,4 km/h (0 Bft) N 0,57 h 0,102 mm 0,6 UV-I 71 W/m 14,5 C 17,5 C 1,2 km/h (1 Bft)
27.06.2015 19:00 16,7 C 87 % 1015,3 hPa 0,4 l/m 0,8 km/h (0 Bft) N 0,00 h 0,025 mm 0,0 UV-I 23 W/m 14,6 C 16,7 C 1,7 km/h (1 Bft)
27.06.2015 20:00 15,9 C 92 % 1015,4 hPa 0,0 l/m 0,0 km/h (0 Bft) N 0,00 h 0,025 mm 0,0 UV-I 11 W/m 14,5 C 15,9 C 0,2 km/h (0 Bft)
27.06.2015 21:00 15,4 C 94 % 1016,4 hPa 0,0 l/m 0,0 km/h (0 Bft) N 0,00 h 0,000 mm 0,0 UV-I 5 W/m 14,5 C 15,4 C 0,1 km/h (0 Bft)
27.06.2015 22:00 15,0 C 95 % 1017,1 hPa 0,0 l/m 0,0 km/h (0 Bft) N 0,00 h 0,000 mm 0,0 UV-I 0 W/m 14,2 C 15,0 C 0,0 km/h (0 Bft)
27.06.2015 23:00 14,9 C 96 % 1017,7 hPa 0,2 l/m 0,3 km/h (0 Bft) N 0,00 h 0,000 mm 0,0 UV-I 0 W/m 14,3 C 14,9 C 0,9 km/h (0 Bft)
28.06.2015 00:00 14,9 C 96 % 1018,2 hPa 0,0 l/m 1,1 km/h (1 Bft) N 0,00 h 0,000 mm 0,0 UV-I 0 W/m 14,2 C 14,9 C 2,8 km/h (1 Bft)
28.06.2015 01:00 14,6 C 95 % 1018,5 hPa 0,0 l/m 0,0 km/h (0 Bft) N 0,00 h 0,000 mm 0,0 UV-I 0 W/m 13,8 C 14,6 C 0,0 km/h (0 Bft)
28.06.2015 02:00 14,3 C 96 % 1018,7 hPa 0,0 l/m 0,0 km/h (0 Bft) N 0,00 h 0,000 mm 0,0 UV-I 0 W/m 13,7 C 14,3 C 0,0 km/h (0 Bft)
28.06.2015 03:00 14,1 C 96 % 1019,0 hPa 0,2 l/m 0,8 km/h (0 Bft) N 0,00 h 0,000 mm 0,0 UV-I 0 W/m 13,5 C 14,0 C 1,9 km/h (1 Bft)
28.06.2015 04:00 13,3 C 94 % 1019,3 hPa 0,0 l/m 0,4 km/h (0 Bft) N 0,00 h 0,000 mm 0,0 UV-I 0 W/m 12,3 C 13,3 C 0,9 km/h (0 Bft)
28.06.2015 05:00 12,9 C 94 % 1019,6 hPa 0,0 l/m 0,0 km/h (0 Bft) N 0,00 h 0,000 mm 0,0 UV-I 13 W/m 12,1 C 12,9 C 0,0 km/h (0 Bft)
28.06.2015 06:00 13,0 C 94 % 1019,8 hPa 0,0 l/m 0,6 km/h (0 Bft) N 0,10 h 0,000 mm 0,0 UV-I 37 W/m 12,1 C 13,0 C 1,6 km/h (1 Bft)
28.06.2015 07:00 13,6 C 89 % 1020,2 hPa 0,0 l/m 3,9 km/h (1 Bft) N-NW 0,53 h 0,025 mm 0,9 UV-I 203 W/m 11,9 C 13,5 C 8,0 km/h (2 Bft)
28.06.2015 08:00 15,4 C 78 % 1020,6 hPa 0,0 l/m 5,2 km/h (1 Bft) N-NW 1,00 h 0,102 mm 1,6 UV-I 468 W/m 11,5 C 15,0 C 9,7 km/h (2 Bft)
28.06.2015 09:00 16,6 C 70 % 1020,9 hPa 0,0 l/m 3,7 km/h (1 Bft) NW 1,00 h 0,254 mm 2,7 UV-I 578 W/m 11,0 C 16,4 C 7,6 km/h (2 Bft)
28.06.2015 10:00 18,0 C 63 % 1020,9 hPa 0,0 l/m 4,3 km/h (1 Bft) N 1,00 h 0,330 mm 3,7 UV-I 769 W/m 10,9 C 17,7 C 8,6 km/h (2 Bft)
28.06.2015 11:00 18,7 C 59 % 1020,9 hPa 0,0 l/m 3,7 km/h (1 Bft) NW 1,00 h 0,406 mm 4,4 UV-I 637 W/m 10,6 C 18,6 C 8,7 km/h (2 Bft)
28.06.2015 12:00 19,1 C 57 % 1020,9 hPa 0,0 l/m 4,6 km/h (1 Bft) N 1,00 h 0,356 mm 4,6 UV-I 484 W/m 10,2 C 18,8 C 9,4 km/h (2 Bft)
28.06.2015 13:00 19,9 C 54 % 1020,8 hPa 0,0 l/m 3,4 km/h (1 Bft) N 1,00 h 0,330 mm 5,3 UV-I 645 W/m 10,2 C 19,8 C 7,2 km/h (2 Bft)
28.06.2015 14:00 21,2 C 52 % 1020,5 hPa 0,0 l/m 2,8 km/h (1 Bft) W 1,00 h 0,381 mm 5,9 UV-I 764 W/m 10,8 C 21,1 C 6,9 km/h (2 Bft)
28.06.2015 15:00 21,1 C 50 % 1020,4 hPa 0,0 l/m 2,2 km/h (1 Bft) W-NW 1,00 h 0,508 mm 4,2 UV-I 579 W/m 10,3 C 21,1 C 5,6 km/h (2 Bft)
28.06.2015 16:00 20,4 C 50 % 1020,0 hPa 0,0 l/m 1,8 km/h (1 Bft) N 1,00 h 0,330 mm 2,6 UV-I 300 W/m 9,7 C 20,4 C 4,3 km/h (1 Bft)
28.06.2015 17:00 21,3 C 47 % 1019,8 hPa 0,0 l/m 3,8 km/h (1 Bft) NW 1,00 h 0,229 mm 2,0 UV-I 381 W/m 9,6 C 21,1 C 7,6 km/h (2 Bft)
28.06.2015 18:00 19,9 C 49 % 1019,8 hPa 0,0 l/m 0,8 km/h (0 Bft) N 1,00 h 0,254 mm 1,0 UV-I 72 W/m 8,9 C 19,9 C 2,5 km/h (1 Bft)
28.06.2015 19:00 19,5 C 50 % 1020,1 hPa 0,0 l/m 1,3 km/h (1 Bft) N 0,28 h 0,051 mm 0,7 UV-I 35 W/m 8,8 C 19,5 C 3,4 km/h (1 Bft)
28.06.2015 20:00 17,8 C 60 % 1020,6 hPa 0,0 l/m 0,0 km/h (0 Bft) N 0,00 h 0,051 mm 0,0 UV-I 27 W/m 10,0 C 17,8 C 0,2 km/h (0 Bft)
28.06.2015 21:00 15,9 C 72 % 1021,0 hPa 0,0 l/m 0,0 km/h (0 Bft) N 0,00 h 0,025 mm 0,0 UV-I 7 W/m 10,7 C 15,9 C 0,0 km/h (0 Bft)
28.06.2015 22:00 14,3 C 80 % 1021,2 hPa 0,0 l/m 0,0 km/h (0 Bft) N 0,00 h 0,000 mm 0,0 UV-I 0 W/m 11,0 C 14,3 C 0,1 km/h (0 Bft)
28.06.2015 23:00 13,6 C 83 % 1021,0 hPa 0,0 l/m 0,0 km/h (0 Bft) N 0,00 h 0,025 mm 0,0 UV-I 0 W/m 10,8 C 13,6 C 0,3 km/h (0 Bft)
Min-Datum _ 22.06.15 28.06.15 23.06.15 - 22.06.15 - - - - - 25.06.15 23.06.15 22.06.15
_ Min-Zeit 08:26 17:06 02:36 - 00:00 - - - - - 05:08 10:01 00:00
Minimum _ 0,0 C 42 % 1003,8 hPa - 0,0 km/h (0 Bft) - - - - - 4,0 C 2,9 C 0,0 km/h (0 Bft)
Max-Datum _ 26.06.15 25.06.15 25.06.15 22.06.15 22.06.15 - 22.06.15 28.06.15 26.06.15 23.06.15 27.06.15 26.06.15 22.06.15
_ Max-Zeit 16:10 06:09 06:21 13:10 17:49 - 08:23 15:00 12:38 12:35 16:26 16:09 17:49
Maximum _ 24,8 C 97 % 1024,0 hPa 3,2 l/m 27,4 km/h
SW (5 Bft)
- 0,10 h 0,508 mm 8,1 UV-I 1194 W/m 17,2 C 24,7 C 43,5 km/h
W-SW (6 Bft)
Durchschnitt _ 14,2 C 80 % 1017,4 hPa #17,8 l/m 2,7 km/h (1 Bft) N #86:25 h #17,523 mm 2,1 UV-I 251 W/m 10,5 C 13,9 C 5,6 km/h (2 Bft)